sensor_id;sensor_type;location;lat;lon;timestamp;pressure;altitude;pressure_sealevel;temperature
49154;BMP280;49455;52.252;9.124;2024-03-08T07:11:06;99794.69;;;0.47
49154;BMP280;49455;52.252;9.124;2024-03-08T07:16:06;99802.13;;;0.60
49154;BMP280;49455;52.252;9.124;2024-03-08T07:21:10;99808.69;;;0.70
49154;BMP280;49455;52.252;9.124;2024-03-08T07:26:16;99811.16;;;0.87
49154;BMP280;49455;52.252;9.124;2024-03-08T07:31:16;99809.94;;;0.93
49154;BMP280;49455;52.252;9.124;2024-03-08T07:36:17;99807.59;;;1.08
49154;BMP280;49455;52.252;9.124;2024-03-08T07:41:17;99798.50;;;1.28
49154;BMP280;49455;52.252;9.124;2024-03-08T07:46:18;99802.56;;;1.41
49154;BMP280;49455;52.252;9.124;2024-03-08T07:51:18;99800.22;;;1.57
49154;BMP280;49455;52.252;9.124;2024-03-08T07:56:19;99787.13;;;1.58
49154;BMP280;49455;52.252;9.124;2024-03-08T08:01:19;99795.31;;;1.52
49154;BMP280;49455;52.252;9.124;2024-03-08T08:06:20;99784.97;;;1.48
49154;BMP280;49455;52.252;9.124;2024-03-08T08:11:20;99791.06;;;1.56
49154;BMP280;49455;52.252;9.124;2024-03-08T08:16:24;99793.63;;;1.56
49154;BMP280;49455;52.252;9.124;2024-03-08T08:21:24;99784.63;;;1.70
49154;BMP280;49455;52.252;9.124;2024-03-08T08:26:25;99778.09;;;1.81
49154;BMP280;49455;52.252;9.124;2024-03-08T08:31:26;99775.13;;;1.91
49154;BMP280;49455;52.252;9.124;2024-03-08T08:36:26;99776.03;;;2.07
49154;BMP280;49455;52.252;9.124;2024-03-08T08:41:30;99770.91;;;2.31
49154;BMP280;49455;52.252;9.124;2024-03-08T08:46:30;99765.28;;;2.62
49154;BMP280;49455;52.252;9.124;2024-03-08T08:51:31;99753.81;;;2.96
49154;BMP280;49455;52.252;9.124;2024-03-08T08:56:31;99757.22;;;3.39
49154;BMP280;49455;52.252;9.124;2024-03-08T09:01:32;99753.34;;;3.45
49154;BMP280;49455;52.252;9.124;2024-03-08T09:06:32;99745.94;;;3.56
49154;BMP280;49455;52.252;9.124;2024-03-08T09:11:33;99738.44;;;3.79
49154;BMP280;49455;52.252;9.124;2024-03-08T09:16:33;99725.16;;;4.04
49154;BMP280;49455;52.252;9.124;2024-03-08T09:21:34;99724.63;;;4.14
49154;BMP280;49455;52.252;9.124;2024-03-08T09:26:34;99709.56;;;4.28
49154;BMP280;49455;52.252;9.124;2024-03-08T09:31:35;99701.94;;;4.47
49154;BMP280;49455;52.252;9.124;2024-03-08T09:36:35;99701.88;;;4.63
49154;BMP280;49455;52.252;9.124;2024-03-08T09:41:36;99686.28;;;4.71
49154;BMP280;49455;52.252;9.124;2024-03-08T09:46:36;99687.84;;;4.76
49154;BMP280;49455;52.252;9.124;2024-03-08T09:51:41;99675.47;;;5.23
49154;BMP280;49455;52.252;9.124;2024-03-08T09:56:43;99674.59;;;5.12
49154;BMP280;49455;52.252;9.124;2024-03-08T10:01:43;99662.31;;;5.25
49154;BMP280;49455;52.252;9.124;2024-03-08T10:06:45;99649.72;;;5.39
49154;BMP280;49455;52.252;9.124;2024-03-08T10:11:45;99647.72;;;5.51
49154;BMP280;49455;52.252;9.124;2024-03-08T10:16:46;99636.94;;;5.42
49154;BMP280;49455;52.252;9.124;2024-03-08T10:21:50;99634.84;;;5.48
49154;BMP280;49455;52.252;9.124;2024-03-08T10:26:58;99626.84;;;5.79
49154;BMP280;49455;52.252;9.124;2024-03-08T10:31:59;99631.56;;;6.03
49154;BMP280;49455;52.252;9.124;2024-03-08T10:37:03;99621.28;;;6.03
49154;BMP280;49455;52.252;9.124;2024-03-08T10:42:08;99617.22;;;6.02
49154;BMP280;49455;52.252;9.124;2024-03-08T10:47:30;99602.16;;;6.30
49154;BMP280;49455;52.252;9.124;2024-03-08T10:59:03;99603.06;;;6.15
49154;BMP280;49455;52.252;9.124;2024-03-08T12:10:15;99482.28;;;8.05
49154;BMP280;49455;52.252;9.124;2024-03-08T12:15:16;99486.31;;;8.10
49154;BMP280;49455;52.252;9.124;2024-03-08T12:25:20;99470.88;;;8.21
49154;BMP280;49455;52.252;9.124;2024-03-08T12:30:25;99456.50;;;8.23
49154;BMP280;49455;52.252;9.124;2024-03-08T12:35:28;99445.81;;;8.32
49154;BMP280;49455;52.252;9.124;2024-03-08T12:40:32;99438.41;;;8.55
49154;BMP280;49455;52.252;9.124;2024-03-08T12:45:33;99423.34;;;8.15
49154;BMP280;49455;52.252;9.124;2024-03-08T12:50:33;99416.34;;;8.08
49154;BMP280;49455;52.252;9.124;2024-03-08T12:55:34;99411.19;;;8.26
49154;BMP280;49455;52.252;9.124;2024-03-08T13:00:35;99403.38;;;8.75
49154;BMP280;49455;52.252;9.124;2024-03-08T13:05:35;99400.13;;;8.46
49154;BMP280;49455;52.252;9.124;2024-03-08T13:10:35;99400.09;;;8.60
49154;BMP280;49455;52.252;9.124;2024-03-08T13:15:43;99378.56;;;9.02
49154;BMP280;49455;52.252;9.124;2024-03-08T13:20:49;99373.81;;;8.97
49154;BMP280;49455;52.252;9.124;2024-03-08T13:25:50;99359.50;;;9.50
49154;BMP280;49455;52.252;9.124;2024-03-08T13:30:53;99365.81;;;9.39
49154;BMP280;49455;52.252;9.124;2024-03-08T13:36:05;99357.94;;;8.98
49154;BMP280;49455;52.252;9.124;2024-03-08T13:41:06;99344.00;;;8.82
49154;BMP280;49455;52.252;9.124;2024-03-08T13:46:07;99343.81;;;9.17
49154;BMP280;49455;52.252;9.124;2024-03-08T13:51:07;99344.81;;;8.65
49154;BMP280;49455;52.252;9.124;2024-03-08T13:56:08;99329.28;;;8.79
49154;BMP280;49455;52.252;9.124;2024-03-08T14:01:08;99317.41;;;8.99
49154;BMP280;49455;52.252;9.124;2024-03-08T14:06:09;99306.00;;;8.86
49154;BMP280;49455;52.252;9.124;2024-03-08T14:11:10;99306.81;;;9.37
49154;BMP280;49455;52.252;9.124;2024-03-08T14:16:11;99298.97;;;8.93
49154;BMP280;49455;52.252;9.124;2024-03-08T14:21:12;99280.47;;;9.02
49154;BMP280;49455;52.252;9.124;2024-03-08T14:26:12;99271.91;;;9.12
49154;BMP280;49455;52.252;9.124;2024-03-08T14:31:13;99275.97;;;9.16
49154;BMP280;49455;52.252;9.124;2024-03-08T14:36:13;99269.34;;;9.12
49154;BMP280;49455;52.252;9.124;2024-03-08T14:41:13;99261.41;;;8.85
49154;BMP280;49455;52.252;9.124;2024-03-08T14:46:16;99265.13;;;8.81
49154;BMP280;49455;52.252;9.124;2024-03-08T14:51:18;99252.88;;;8.92
49154;BMP280;49455;52.252;9.124;2024-03-08T14:56:18;99235.22;;;8.90
49154;BMP280;49455;52.252;9.124;2024-03-08T15:01:19;99226.06;;;8.79
49154;BMP280;49455;52.252;9.124;2024-03-08T15:06:19;99223.41;;;8.89
49154;BMP280;49455;52.252;9.124;2024-03-08T15:11:20;99209.94;;;8.61
49154;BMP280;49455;52.252;9.124;2024-03-08T15:16:22;99203.00;;;8.51
49154;BMP280;49455;52.252;9.124;2024-03-08T15:21:23;99179.06;;;8.50
49154;BMP280;49455;52.252;9.124;2024-03-08T15:26:23;99191.44;;;8.73
49154;BMP280;49455;52.252;9.124;2024-03-08T15:31:24;99185.69;;;8.48
49154;BMP280;49455;52.252;9.124;2024-03-08T15:36:24;99195.22;;;8.58
49154;BMP280;49455;52.252;9.124;2024-03-08T15:41:24;99196.81;;;8.34
49154;BMP280;49455;52.252;9.124;2024-03-08T15:46:25;99182.78;;;8.39
49154;BMP280;49455;52.252;9.124;2024-03-08T15:51:26;99178.44;;;8.25
49154;BMP280;49455;52.252;9.124;2024-03-08T15:56:26;99178.47;;;8.22
49154;BMP280;49455;52.252;9.124;2024-03-08T16:01:27;99172.69;;;7.89
49154;BMP280;49455;52.252;9.124;2024-03-08T16:06:27;99170.47;;;7.77
49154;BMP280;49455;52.252;9.124;2024-03-08T16:11:27;99166.50;;;7.55
49154;BMP280;49455;52.252;9.124;2024-03-08T16:16:28;99156.91;;;7.49
49154;BMP280;49455;52.252;9.124;2024-03-08T16:21:28;99163.59;;;7.32
49154;BMP280;49455;52.252;9.124;2024-03-08T16:26:29;99155.09;;;7.28
49154;BMP280;49455;52.252;9.124;2024-03-08T16:31:29;99147.38;;;7.14
49154;BMP280;49455;52.252;9.124;2024-03-08T16:36:30;99141.13;;;6.98
49154;BMP280;49455;52.252;9.124;2024-03-08T16:41:33;99137.44;;;6.85
49154;BMP280;49455;52.252;9.124;2024-03-08T16:46:34;99140.00;;;6.78
49154;BMP280;49455;52.252;9.124;2024-03-08T16:51:39;99139.59;;;6.65
49154;BMP280;49455;52.252;9.124;2024-03-08T16:56:47;99142.16;;;6.55
49154;BMP280;49455;52.252;9.124;2024-03-08T17:01:50;99143.59;;;6.41
49154;BMP280;49455;52.252;9.124;2024-03-08T17:06:51;99126.34;;;6.35
49154;BMP280;49455;52.252;9.124;2024-03-08T17:11:51;99129.94;;;6.23
49154;BMP280;49455;52.252;9.124;2024-03-08T17:16:52;99134.34;;;6.19
49154;BMP280;49455;52.252;9.124;2024-03-08T17:21:53;99123.66;;;6.10
49154;BMP280;49455;52.252;9.124;2024-03-08T17:26:53;99108.22;;;6.03
49154;BMP280;49455;52.252;9.124;2024-03-08T17:31:53;99110.03;;;5.96
49154;BMP280;49455;52.252;9.124;2024-03-08T17:36:54;99111.47;;;5.90
49154;BMP280;49455;52.252;9.124;2024-03-08T17:41:55;99108.84;;;5.83
49154;BMP280;49455;52.252;9.124;2024-03-08T17:46:55;99104.09;;;5.81
49154;BMP280;49455;52.252;9.124;2024-03-08T17:51:56;99109.94;;;5.78
49154;BMP280;49455;52.252;9.124;2024-03-08T17:56:56;99126.41;;;5.74
49154;BMP280;49455;52.252;9.124;2024-03-08T18:01:57;99110.59;;;5.68
49154;BMP280;49455;52.252;9.124;2024-03-08T18:06:57;99109.13;;;5.64
49154;BMP280;49455;52.252;9.124;2024-03-08T18:11:57;99110.56;;;5.61
49154;BMP280;49455;52.252;9.124;2024-03-08T18:16:58;99101.38;;;5.57
49154;BMP280;49455;52.252;9.124;2024-03-08T18:21:58;99089.97;;;5.54
49154;BMP280;49455;52.252;9.124;2024-03-08T18:27:01;99080.81;;;5.53
49154;BMP280;49455;52.252;9.124;2024-03-08T18:32:02;99075.69;;;5.53
49154;BMP280;49455;52.252;9.124;2024-03-08T18:37:02;99070.19;;;5.51
49154;BMP280;49455;52.252;9.124;2024-03-08T18:42:03;99059.53;;;5.46
49154;BMP280;49455;52.252;9.124;2024-03-08T18:47:03;99058.44;;;5.50
49154;BMP280;49455;52.252;9.124;2024-03-08T18:52:07;99058.41;;;5.47
49154;BMP280;49455;52.252;9.124;2024-03-08T18:57:07;99062.81;;;5.43
49154;BMP280;49455;52.252;9.124;2024-03-08T19:02:10;99057.97;;;5.38
49154;BMP280;49455;52.252;9.124;2024-03-08T19:07:11;99047.31;;;5.32
49154;BMP280;49455;52.252;9.124;2024-03-08T19:12:11;99053.88;;;5.23
49154;BMP280;49455;52.252;9.124;2024-03-08T19:17:12;99045.13;;;5.31
49154;BMP280;49455;52.252;9.124;2024-03-08T19:22:12;99039.63;;;5.32
49154;BMP280;49455;52.252;9.124;2024-03-08T19:27:13;99034.09;;;5.27
49154;BMP280;49455;52.252;9.124;2024-03-08T19:32:16;99028.94;;;5.27
49154;BMP280;49455;52.252;9.124;2024-03-08T19:37:16;99029.63;;;5.17
49154;BMP280;49455;52.252;9.124;2024-03-08T19:42:17;99038.00;;;5.07
49154;BMP280;49455;52.252;9.124;2024-03-08T19:47:17;99026.63;;;5.08
49154;BMP280;49455;52.252;9.124;2024-03-08T19:52:18;99036.19;;;5.11
49154;BMP280;49455;52.252;9.124;2024-03-08T19:57:18;99034.28;;;5.04
49154;BMP280;49455;52.252;9.124;2024-03-08T20:02:18;99033.94;;;5.06
49154;BMP280;49455;52.252;9.124;2024-03-08T20:07:19;99031.34;;;4.99
49154;BMP280;49455;52.252;9.124;2024-03-08T20:12:19;99042.69;;;4.98
49154;BMP280;49455;52.252;9.124;2024-03-08T20:17:20;99035.00;;;4.98
49154;BMP280;49455;52.252;9.124;2024-03-08T20:22:20;99014.09;;;4.96
49154;BMP280;49455;52.252;9.124;2024-03-08T20:27:21;99006.78;;;4.94
49154;BMP280;49455;52.252;9.124;2024-03-08T20:32:21;99010.75;;;4.91
49154;BMP280;49455;52.252;9.124;2024-03-08T20:37:22;99013.25;;;4.81
49154;BMP280;49455;52.252;9.124;2024-03-08T20:42:22;99006.28;;;4.78
49154;BMP280;49455;52.252;9.124;2024-03-08T20:47:23;98993.44;;;4.74
49154;BMP280;49455;52.252;9.124;2024-03-08T20:52:23;98983.88;;;4.68
49154;BMP280;49455;52.252;9.124;2024-03-08T20:57:23;98977.28;;;4.67
49154;BMP280;49455;52.252;9.124;2024-03-08T21:02:24;98978.75;;;4.68
49154;BMP280;49455;52.252;9.124;2024-03-08T21:07:24;98965.06;;;4.57
49154;BMP280;49455;52.252;9.124;2024-03-08T21:12:25;98951.16;;;4.51
49154;BMP280;49455;52.252;9.124;2024-03-08T21:17:25;98956.63;;;4.49
49154;BMP280;49455;52.252;9.124;2024-03-08T21:22:26;98941.53;;;4.41
49154;BMP280;49455;52.252;9.124;2024-03-08T21:27:26;98928.66;;;4.30
49154;BMP280;49455;52.252;9.124;2024-03-08T21:32:27;98935.53;;;4.23
49154;BMP280;49455;52.252;9.124;2024-03-08T21:37:27;98924.91;;;4.21
49154;BMP280;49455;52.252;9.124;2024-03-08T21:42:27;98927.16;;;4.26
49154;BMP280;49455;52.252;9.124;2024-03-08T21:47:28;98926.28;;;4.15
49154;BMP280;49455;52.252;9.124;2024-03-08T21:52:28;98932.16;;;4.15
49154;BMP280;49455;52.252;9.124;2024-03-08T21:57:29;98930.63;;;4.07
49154;BMP280;49455;52.252;9.124;2024-03-08T22:02:30;98927.25;;;4.00
49154;BMP280;49455;52.252;9.124;2024-03-08T22:07:30;98927.84;;;3.86
49154;BMP280;49455;52.252;9.124;2024-03-08T22:12:31;98922.31;;;3.81
49154;BMP280;49455;52.252;9.124;2024-03-08T22:17:32;98914.19;;;3.75
49154;BMP280;49455;52.252;9.124;2024-03-08T22:22:32;98920.31;;;3.64
49154;BMP280;49455;52.252;9.124;2024-03-08T22:27:33;98927.97;;;3.64
49154;BMP280;49455;52.252;9.124;2024-03-08T22:32:33;98921.81;;;3.68
49154;BMP280;49455;52.252;9.124;2024-03-08T22:37:33;98920.63;;;3.62
49154;BMP280;49455;52.252;9.124;2024-03-08T22:42:34;98910.44;;;3.66
49154;BMP280;49455;52.252;9.124;2024-03-08T22:47:34;98906.06;;;3.66
49154;BMP280;49455;52.252;9.124;2024-03-08T22:52:35;98914.28;;;3.82
49154;BMP280;49455;52.252;9.124;2024-03-08T22:57:35;98914.28;;;3.82
49154;BMP280;49455;52.252;9.124;2024-03-08T23:02:36;98908.13;;;3.87
49154;BMP280;49455;52.252;9.124;2024-03-08T23:07:36;98908.88;;;3.94
49154;BMP280;49455;52.252;9.124;2024-03-08T23:12:40;98905.16;;;4.25
49154;BMP280;49455;52.252;9.124;2024-03-08T23:17:42;98902.09;;;4.12
49154;BMP280;49455;52.252;9.124;2024-03-08T23:22:44;98904.44;;;4.24
49154;BMP280;49455;52.252;9.124;2024-03-08T23:27:48;98905.81;;;4.15
49154;BMP280;49455;52.252;9.124;2024-03-08T23:32:49;98891.06;;;4.01
49154;BMP280;49455;52.252;9.124;2024-03-08T23:37:50;98885.94;;;4.01
49154;BMP280;49455;52.252;9.124;2024-03-08T23:42:50;98883.38;;;4.01
49154;BMP280;49455;52.252;9.124;2024-03-08T23:47:52;98888.03;;;3.92
49154;BMP280;49455;52.252;9.124;2024-03-08T23:52:53;98881.44;;;3.91
49154;BMP280;49455;52.252;9.124;2024-03-08T23:57:58;98881.38;;;3.84
